Pagina principale
METAR-TAF:

METAR-TAF

Aeroporti :

Aeroporto di Trieste-Ronchi dei Legionari

Trieste / Ronchi dei Legionari, Italia

latitudine: 45-49N, longitudine: 013-29E, altezza: 12 m

Osservazione

Il bollettino è stato emesso 17 minuti fa, alle 01:50 UTC
Vento 4 kt da nord/nord-est
Temperature 7°C
Umidità 87%
Pressione 1019 hPa
Visibilità 10 km o più
pioggia debole

METAR: LIPQ 030150Z AUTO 02004KT 9999 -RA BKN051/// 07/05 Q1019

Ora: 03:07 (02:07 UTC)

Previsione

Il bollettino è stato emesso 3 ore e 7 minuti fa, alle 23:00 UTC
Previsione valida dal 03 alle 00 UTC al 03 alle 24 UTC
Vento 8 kt da est
Visibilità: 8000 m
Nuvoloso ad un'altezza di 4000 ft
Temporaneamente
dal 03 alle 06 UTC al 03 alle 18 UTC
Visibilità: 4000 m
pioggia

TAF: LIPQ 022300Z 0300/0324 08008KT 8000 BKN040 TEMPO 0306/0318 4000 RA

Osservazioni e previsioni meteorologiche di più di 4000 aeroporti (messaggi METAR e TAF).

Le stazioni disponibili sono rappresentate dai dischi gialli e rossi sulla carta.

Puntare il mouse per vedere il nome della stazione.

Clicca sopra per visualizzare le osservazioni e previsioni meteorologiche.

Per cambiare la mappa : fare clic sui pulsanti verdi con una croce nera per ingrandire, il pulsante verde con un trattino per diminuire, o sulla freccia verde per le mappe adiacenti.


METAR-TAF: